createdAt,value
2022-08-04T00:00:05.370Z,8.07
2022-08-04T00:03:03.509Z,12.33
2022-08-04T00:05:47.406Z,8.23
2022-08-04T00:08:46.971Z,8.20
2022-08-04T00:11:19.890Z,8.63
2022-08-04T00:14:03.013Z,9.70
2022-08-04T00:16:38.175Z,11.80
2022-08-04T00:19:32.380Z,9.63
2022-08-04T00:22:04.272Z,9.23
2022-08-04T00:24:32.451Z,7.30
2022-08-04T00:27:00.207Z,7.63
2022-08-04T00:29:28.124Z,7.80
2022-08-04T00:31:58.320Z,9.70
2022-08-04T00:34:28.036Z,9.50
2022-08-04T00:36:56.399Z,10.60
2022-08-04T00:39:23.984Z,8.60
2022-08-04T00:41:59.593Z,4.87
2022-08-04T00:44:58.099Z,7.33
2022-08-04T00:47:37.682Z,7.83
2022-08-04T00:50:07.909Z,8.23
2022-08-04T00:52:46.540Z,9.63
2022-08-04T00:55:18.639Z,7.90
2022-08-04T00:58:24.067Z,8.90
2022-08-04T01:01:08.574Z,6.93
2022-08-04T01:04:03.446Z,8.60
2022-08-04T01:07:03.549Z,8.13
2022-08-04T01:09:50.639Z,6.93
2022-08-04T01:12:46.842Z,9.33
2022-08-04T01:16:16.683Z,9.37
2022-08-04T01:18:55.604Z,7.10
2022-08-04T01:21:28.271Z,10.93
2022-08-04T01:24:17.187Z,7.73
2022-08-04T01:26:57.791Z,12.97
2022-08-04T01:29:30.493Z,10.97
2022-08-04T01:32:19.798Z,11.70
2022-08-04T01:35:01.204Z,10.20
2022-08-04T01:38:18.457Z,11.33
2022-08-04T01:40:53.089Z,10.87
2022-08-04T01:43:20.838Z,8.03
2022-08-04T01:45:56.907Z,8.17
2022-08-04T01:48:25.207Z,8.70
2022-08-04T01:50:58.809Z,7.43
2022-08-04T01:53:33.481Z,9.93
2022-08-04T01:56:02.347Z,9.23
2022-08-04T01:58:30.495Z,9.07
2022-08-04T02:01:08.226Z,11.23
2022-08-04T02:04:18.900Z,10.20
2022-08-04T02:06:38.626Z,7.50
2022-08-04T02:09:05.075Z,8.90
2022-08-04T02:11:31.735Z,13.20
2022-08-04T02:14:08.483Z,9.63
2022-08-04T02:16:46.814Z,9.20
2022-08-04T02:19:44.414Z,8.80
2022-08-04T02:22:18.858Z,11.57
2022-08-04T02:24:58.724Z,7.40
2022-08-04T02:27:29.942Z,9.50
2022-08-04T02:30:19.016Z,8.77
2022-08-04T02:32:48.656Z,12.73
2022-08-04T02:35:20.752Z,10.90
2022-08-04T02:37:48.932Z,7.03
2022-08-04T02:40:21.108Z,9.00
2022-08-04T02:42:47.764Z,8.60
2022-08-04T02:45:18.537Z,6.53
2022-08-04T02:48:30.522Z,8.20
2022-08-04T02:50:35.398Z,10.10
2022-08-04T02:53:04.400Z,7.47
2022-08-04T02:55:37.933Z,8.30
2022-08-04T02:58:05.653Z,7.70
2022-08-04T03:00:32.917Z,8.00
2022-08-04T03:03:24.629Z,10.70
2022-08-04T03:06:17.464Z,8.47
2022-08-04T03:09:05.768Z,11.47
2022-08-04T03:11:38.331Z,7.97
2022-08-04T03:14:28.517Z,8.70
2022-08-04T03:17:32.364Z,8.40
2022-08-04T03:20:27.642Z,10.87
2022-08-04T03:23:42.191Z,8.50
2022-08-04T03:26:33.064Z,8.60
2022-08-04T03:29:36.110Z,9.43
2022-08-04T03:32:25.351Z,7.83
2022-08-04T03:35:24.204Z,7.90
2022-08-04T03:38:26.253Z,10.70
2022-08-04T03:41:10.409Z,6.37
2022-08-04T03:44:00.833Z,8.03
2022-08-04T03:46:43.684Z,10.07
2022-08-04T03:49:49.402Z,8.57
2022-08-04T03:52:43.673Z,10.87
2022-08-04T03:55:41.249Z,10.60
2022-08-04T03:58:19.724Z,8.57
2022-08-04T04:01:30.574Z,8.10
2022-08-04T04:04:59.897Z,10.17
2022-08-04T04:07:40.784Z,8.47
2022-08-04T04:10:29.153Z,7.90
2022-08-04T04:13:54.974Z,6.87
2022-08-04T04:16:24.261Z,12.20
2022-08-04T04:19:17.263Z,11.03
2022-08-04T04:22:13.303Z,8.53
2022-08-04T04:25:04.491Z,10.07
2022-08-04T04:27:50.545Z,7.70
2022-08-04T04:30:46.312Z,10.40
2022-08-04T04:33:44.395Z,7.53
2022-08-04T04:36:32.993Z,8.33
2022-08-04T04:39:24.266Z,6.97
2022-08-04T04:42:09.528Z,9.53
2022-08-04T04:44:55.367Z,8.87
2022-08-04T04:48:05.907Z,8.37
2022-08-04T04:50:36.424Z,11.73
2022-08-04T04:53:34.709Z,11.13
2022-08-04T04:56:43.748Z,9.43
2022-08-04T04:59:13.501Z,7.07
2022-08-04T05:02:17.137Z,8.27
2022-08-04T05:04:53.281Z,13.10
2022-08-04T05:07:37.373Z,8.23
2022-08-04T05:10:24.317Z,8.20
2022-08-04T05:14:36.199Z,7.87
2022-08-04T05:16:20.620Z,6.87
2022-08-04T05:18:54.742Z,9.80
2022-08-04T05:21:45.371Z,8.70
2022-08-04T05:24:16.295Z,8.37
2022-08-04T05:26:48.488Z,9.60
2022-08-04T05:29:35.118Z,12.27
2022-08-04T05:32:07.400Z,12.80
2022-08-04T05:34:40.985Z,11.00
2022-08-04T05:37:20.618Z,10.83
2022-08-04T05:39:54.005Z,13.27
2022-08-04T05:42:21.794Z,10.07
2022-08-04T05:44:51.235Z,11.67
2022-08-04T05:47:21.446Z,15.53
2022-08-04T05:49:55.693Z,10.03
2022-08-04T05:52:30.353Z,9.17
2022-08-04T05:54:59.310Z,11.70
2022-08-04T05:57:26.871Z,11.43
2022-08-04T05:59:57.126Z,13.50
2022-08-04T06:02:25.379Z,10.87
2022-08-04T06:04:54.055Z,8.73
2022-08-04T06:07:20.836Z,10.10
2022-08-04T06:09:47.500Z,9.10
2022-08-04T06:12:38.146Z,11.60
2022-08-04T06:15:06.431Z,11.63
2022-08-04T06:18:35.494Z,10.47
2022-08-04T06:20:32.535Z,10.07
2022-08-04T06:23:13.618Z,10.80
2022-08-04T06:26:00.537Z,9.00
2022-08-04T06:28:28.967Z,10.07
2022-08-04T06:32:27.708Z,9.60
2022-08-04T06:33:54.867Z,9.57
2022-08-04T06:36:22.115Z,6.90
2022-08-04T06:38:58.336Z,6.80
2022-08-04T06:41:26.242Z,5.63
2022-08-04T06:43:53.921Z,9.43
2022-08-04T06:46:20.818Z,10.73
2022-08-04T06:48:48.146Z,8.43
2022-08-04T06:51:24.863Z,6.70
2022-08-04T06:53:55.716Z,7.93
2022-08-04T06:56:25.308Z,8.20
2022-08-04T06:58:55.857Z,9.32
2022-08-04T07:01:24.638Z,6.40
2022-08-04T07:03:52.873Z,8.55
2022-08-04T07:06:23.913Z,10.70
2022-08-04T07:08:51.730Z,6.47
2022-08-04T07:11:20.293Z,6.63
2022-08-04T07:13:50.047Z,7.68
2022-08-04T07:16:18.401Z,8.13
2022-08-04T07:18:45.235Z,6.25
2022-08-04T07:21:18.573Z,6.88
2022-08-04T07:23:45.368Z,7.63
2022-08-04T07:26:13.350Z,10.05
2022-08-04T07:28:41.777Z,5.38
2022-08-04T07:31:34.326Z,5.85
2022-08-04T07:34:16.805Z,6.90
2022-08-04T07:36:50.973Z,6.13
2022-08-04T07:39:27.294Z,6.45
2022-08-04T07:41:57.197Z,5.20
2022-08-04T07:44:23.706Z,6.65
2022-08-04T07:46:50.180Z,5.38
2022-08-04T07:49:56.301Z,6.80
2022-08-04T07:52:04.603Z,4.28
2022-08-04T07:54:31.277Z,6.80
2022-08-04T07:56:57.953Z,8.10
2022-08-04T07:59:24.864Z,4.05
2022-08-04T08:01:53.206Z,5.30
2022-08-04T08:04:20.882Z,5.57
2022-08-04T08:06:47.537Z,5.85
2022-08-04T08:09:16.120Z,5.75
2022-08-04T08:12:35.366Z,7.63
2022-08-04T08:14:31.529Z,6.25
2022-08-04T08:17:01.840Z,5.70
2022-08-04T08:19:29.906Z,3.50
2022-08-04T08:21:59.297Z,4.90
2022-08-04T08:24:26.479Z,6.80
2022-08-04T08:26:54.055Z,5.38
2022-08-04T08:29:21.144Z,4.85
2022-08-04T08:31:57.581Z,5.68
2022-08-04T08:34:31.072Z,4.72
2022-08-04T08:37:16.627Z,4.32
2022-08-04T08:39:56.085Z,4.00
2022-08-04T08:42:58.559Z,4.00
2022-08-04T08:46:04.262Z,3.60
2022-08-04T08:49:05.388Z,3.70
2022-08-04T08:51:55.746Z,4.65
2022-08-04T08:54:54.844Z,5.22
2022-08-04T08:57:59.241Z,5.70
2022-08-04T09:00:55.598Z,3.63
2022-08-04T09:03:38.367Z,3.60
2022-08-04T09:06:18.990Z,5.20
2022-08-04T09:09:05.493Z,5.80
2022-08-04T09:11:41.982Z,4.15
2022-08-04T09:14:24.713Z,3.95
2022-08-04T09:17:05.275Z,3.15
2022-08-04T09:19:48.550Z,3.53
2022-08-04T09:22:30.015Z,5.53
2022-08-04T09:25:11.052Z,4.63
2022-08-04T09:28:06.061Z,3.88
2022-08-04T09:30:40.609Z,3.85
2022-08-04T09:33:44.615Z,3.50
2022-08-04T09:36:34.628Z,3.90
2022-08-04T09:39:11.910Z,4.03
2022-08-04T09:41:56.598Z,4.50
2022-08-04T09:44:52.723Z,4.03
2022-08-04T09:47:46.440Z,3.20
2022-08-04T09:50:34.482Z,3.78
2022-08-04T09:53:38.616Z,5.25
2022-08-04T09:56:17.548Z,3.67
2022-08-04T09:59:00.099Z,3.30
2022-08-04T10:01:31.681Z,5.85
2022-08-04T10:04:03.874Z,5.18
2022-08-04T10:06:45.764Z,4.00
2022-08-04T10:09:33.649Z,4.30
2022-08-04T10:12:12.909Z,3.83
2022-08-04T10:14:51.422Z,5.00
2022-08-04T10:17:39.408Z,3.75
2022-08-04T10:20:37.903Z,3.70
2022-08-04T10:23:56.214Z,4.20
2022-08-04T10:26:30.902Z,4.07
2022-08-04T10:29:09.655Z,8.45
2022-08-04T10:31:55.765Z,3.53
2022-08-04T10:34:27.662Z,4.30
2022-08-04T10:37:06.158Z,3.40
2022-08-04T10:40:03.697Z,3.88
2022-08-04T10:42:31.880Z,3.30
2022-08-04T10:45:13.907Z,3.25
2022-08-04T10:47:53.317Z,3.97
2022-08-04T10:50:23.580Z,4.65
2022-08-04T10:53:01.120Z,5.18
2022-08-04T10:56:06.221Z,3.08
2022-08-04T10:58:48.695Z,3.63
2022-08-04T11:01:59.722Z,4.07
2022-08-04T11:04:37.926Z,4.38
2022-08-04T11:07:04.702Z,3.50
2022-08-04T11:09:33.710Z,3.30
2022-08-04T11:12:09.984Z,5.35
2022-08-04T11:14:46.698Z,4.93
2022-08-04T11:17:22.615Z,5.30
2022-08-04T11:20:24.820Z,4.32
2022-08-04T11:23:02.655Z,4.45
2022-08-04T11:25:36.162Z,4.63
2022-08-04T11:28:11.253Z,3.40
2022-08-04T11:30:52.368Z,3.22
2022-08-04T11:33:22.491Z,4.05
2022-08-04T11:36:04.458Z,3.83
2022-08-04T11:38:51.838Z,5.82
2022-08-04T11:41:26.558Z,3.42
2022-08-04T11:44:01.627Z,5.85
2022-08-04T11:46:46.461Z,5.32
2022-08-04T11:49:57.341Z,4.03
2022-08-04T11:52:22.112Z,3.65
2022-08-04T11:54:52.354Z,4.28
2022-08-04T11:57:21.058Z,4.45
2022-08-04T11:59:49.382Z,3.60
2022-08-04T12:02:37.922Z,3.88
2022-08-04T12:05:07.349Z,4.28
2022-08-04T12:08:03.163Z,4.60
2022-08-04T12:11:09.013Z,3.58
2022-08-04T12:14:01.059Z,5.28
2022-08-04T12:16:35.845Z,4.07
2022-08-04T12:19:09.787Z,4.53
2022-08-04T12:21:48.028Z,4.13
2022-08-04T12:24:22.513Z,3.67
2022-08-04T12:27:04.655Z,3.30
2022-08-04T12:29:34.640Z,3.40
2022-08-04T12:32:13.994Z,5.07
2022-08-04T12:34:49.337Z,3.65
2022-08-04T12:37:29.667Z,3.75
2022-08-04T12:40:28.306Z,5.72
2022-08-04T12:43:02.116Z,3.63
2022-08-04T12:45:29.941Z,3.53
2022-08-04T12:48:00.743Z,3.08
2022-08-04T12:50:29.999Z,4.65
2022-08-04T12:53:02.031Z,2.78
2022-08-04T12:55:31.772Z,3.83
2022-08-04T12:58:00.843Z,3.83
2022-08-04T13:00:38.042Z,2.65
2022-08-04T13:03:10.970Z,5.28
2022-08-04T13:05:39.941Z,4.70
2022-08-04T13:08:08.443Z,3.15
2022-08-04T13:10:39.342Z,3.08
2022-08-04T13:13:06.597Z,4.63
2022-08-04T13:15:33.607Z,3.05
2022-08-04T13:18:15.570Z,3.10
2022-08-04T13:20:43.866Z,4.57
2022-08-04T13:23:14.355Z,6.63
2022-08-04T13:26:42.216Z,3.50
2022-08-04T13:28:34.247Z,3.10
2022-08-04T13:31:02.773Z,4.68
2022-08-04T13:33:35.419Z,3.55
2022-08-04T13:36:02.797Z,4.32
2022-08-04T13:38:30.298Z,7.95
2022-08-04T13:41:02.142Z,4.70
2022-08-04T13:44:16.860Z,4.47
2022-08-04T13:46:31.506Z,5.03
2022-08-04T13:49:28.205Z,4.20
2022-08-04T13:52:01.913Z,4.13
2022-08-04T13:54:44.016Z,2.95
2022-08-04T13:57:27.616Z,6.07
2022-08-04T14:00:00.073Z,4.35
2022-08-04T14:02:37.774Z,3.15
2022-08-04T14:05:18.389Z,3.58
2022-08-04T14:07:49.732Z,4.55
2022-08-04T14:10:16.210Z,4.50
2022-08-04T14:12:48.177Z,4.25
2022-08-04T14:16:01.599Z,3.65
2022-08-04T14:18:30.352Z,3.72
2022-08-04T14:21:02.578Z,5.05
2022-08-04T14:23:37.452Z,3.20
2022-08-04T14:26:35.258Z,4.15
2022-08-04T14:29:27.025Z,5.38
2022-08-04T14:32:10.563Z,5.18
2022-08-04T14:34:41.447Z,5.95
2022-08-04T14:37:18.153Z,2.78
2022-08-04T14:40:18.539Z,3.65
2022-08-04T14:42:55.681Z,3.60
2022-08-04T14:45:38.150Z,4.80
2022-08-04T14:48:13.518Z,3.72
2022-08-04T14:50:48.329Z,4.13
2022-08-04T14:53:29.221Z,4.20
2022-08-04T14:55:58.305Z,2.55
2022-08-04T14:58:35.799Z,3.90
2022-08-04T15:01:10.478Z,4.68
2022-08-04T15:03:50.766Z,3.17
2022-08-04T15:06:26.423Z,5.78
2022-08-04T15:08:56.863Z,3.70
2022-08-04T15:11:24.907Z,15.40
2022-08-04T15:13:53.330Z,10.70
2022-08-04T15:16:21.406Z,11.30
2022-08-04T15:18:49.122Z,10.90
2022-08-04T15:21:17.035Z,12.52
2022-08-04T15:23:43.601Z,16.13
2022-08-04T15:26:15.449Z,11.10
2022-08-04T15:28:48.853Z,9.38
2022-08-04T15:32:07.162Z,10.68
2022-08-04T15:34:06.674Z,6.70
2022-08-04T15:36:38.522Z,9.18
2022-08-04T15:39:27.013Z,8.77
2022-08-04T15:42:21.865Z,6.78
2022-08-04T15:45:04.101Z,5.18
2022-08-04T15:47:30.769Z,5.47
2022-08-04T15:50:11.954Z,6.53
2022-08-04T15:53:10.710Z,6.55
2022-08-04T15:55:44.127Z,5.93
2022-08-04T15:58:12.887Z,5.50
2022-08-04T16:00:55.150Z,6.63
2022-08-04T16:03:59.262Z,6.47
2022-08-04T16:06:22.850Z,4.22
2022-08-04T16:08:57.378Z,3.90
2022-08-04T16:11:31.166Z,3.45
2022-08-04T16:13:58.461Z,3.38
2022-08-04T16:16:29.232Z,4.20
2022-08-04T16:19:04.268Z,3.30
2022-08-04T16:21:33.410Z,3.63
2022-08-04T16:24:10.111Z,3.58
2022-08-04T16:26:36.620Z,3.95
2022-08-04T16:29:36.423Z,4.28
2022-08-04T16:32:06.211Z,6.45
2022-08-04T16:37:55.233Z,4.75
2022-08-04T16:40:37.732Z,5.60
2022-08-04T16:43:31.006Z,4.60
2022-08-04T16:46:04.558Z,3.78
2022-08-04T16:48:35.788Z,4.63
2022-08-04T16:51:06.344Z,3.05
2022-08-04T16:53:57.699Z,4.50
2022-08-04T16:56:29.561Z,3.55
2022-08-04T16:58:56.921Z,5.57
2022-08-04T17:01:50.166Z,6.07
2022-08-04T17:04:17.100Z,3.35
2022-08-04T17:06:46.535Z,5.63
2022-08-04T17:09:18.330Z,3.42
2022-08-04T17:11:46.443Z,3.35
2022-08-04T17:14:13.598Z,5.50
2022-08-04T17:16:42.500Z,3.65
2022-08-04T17:19:25.251Z,2.85
2022-08-04T17:22:18.174Z,3.00
2022-08-04T17:24:45.033Z,4.85
2022-08-04T17:28:10.041Z,5.55
2022-08-04T17:29:59.285Z,4.10
2022-08-04T17:32:26.348Z,3.42
2022-08-04T17:35:00.096Z,3.67
2022-08-04T17:37:41.111Z,4.95
2022-08-04T17:40:22.520Z,4.00
2022-08-04T17:44:05.193Z,3.60
2022-08-04T17:46:34.234Z,6.40
2022-08-04T17:49:03.344Z,6.32
2022-08-04T17:52:04.648Z,3.05
2022-08-04T17:54:37.167Z,3.13
2022-08-04T17:57:23.630Z,3.40
2022-08-04T17:59:57.438Z,3.58
2022-08-04T18:02:33.300Z,3.63
2022-08-04T18:05:07.840Z,3.40
2022-08-04T18:08:38.571Z,4.82
2022-08-04T18:10:54.539Z,3.33
2022-08-04T18:13:28.030Z,6.53
2022-08-04T18:16:04.969Z,3.10
2022-08-04T18:18:31.847Z,4.78
2022-08-04T18:21:02.754Z,5.82
2022-08-04T18:26:17.950Z,3.97
2022-08-04T18:28:44.512Z,4.85
2022-08-04T18:31:11.202Z,5.22
2022-08-04T18:33:42.937Z,3.38
2022-08-04T18:36:34.365Z,3.60
2022-08-04T18:39:12.750Z,4.00
2022-08-04T18:44:29.409Z,5.22
2022-08-04T18:50:59.886Z,5.38
2022-08-04T18:52:32.294Z,4.85
2022-08-04T18:55:01.842Z,5.60
2022-08-04T18:57:58.931Z,5.82
2022-08-04T19:00:17.599Z,5.93
2022-08-04T19:02:46.883Z,4.47
2022-08-04T19:05:17.032Z,6.82
2022-08-04T19:08:01.770Z,6.18
2022-08-04T19:10:30.885Z,6.78
2022-08-04T19:12:58.744Z,5.25
2022-08-04T19:15:34.608Z,7.30
2022-08-04T19:18:01.969Z,4.70
2022-08-04T19:20:29.398Z,5.22
2022-08-04T19:24:28.584Z,4.88
2022-08-04T19:25:58.896Z,5.15
2022-08-04T19:28:34.435Z,6.45
2022-08-04T19:31:09.457Z,5.18
2022-08-04T19:33:59.544Z,7.32
2022-08-04T19:39:14.466Z,5.25
2022-08-04T19:42:06.633Z,5.15
2022-08-04T19:44:29.948Z,4.47
2022-08-04T19:46:57.858Z,6.28
2022-08-04T19:50:04.108Z,6.80
2022-08-04T19:52:14.384Z,6.18
2022-08-04T19:55:00.190Z,9.30
2022-08-04T19:57:37.937Z,5.60
2022-08-04T20:00:08.973Z,7.32
2022-08-04T20:02:36.519Z,5.68
2022-08-04T20:05:08.657Z,6.38
2022-08-04T20:07:35.729Z,10.70
2022-08-04T20:10:04.976Z,6.47
2022-08-04T20:12:31.813Z,5.88
2022-08-04T20:14:58.290Z,4.13
2022-08-04T20:18:07.079Z,5.93
2022-08-04T20:20:13.486Z,6.60
2022-08-04T20:22:51.999Z,6.93
2022-08-04T20:25:36.055Z,4.57
2022-08-04T20:28:03.913Z,5.47
2022-08-04T20:30:30.758Z,4.53
2022-08-04T20:32:58.079Z,5.45
2022-08-04T20:35:26.898Z,5.47
2022-08-04T20:38:00.374Z,3.90
2022-08-04T20:40:28.377Z,4.53
2022-08-04T20:42:57.205Z,5.23
2022-08-04T20:45:24.120Z,3.43
2022-08-04T20:48:10.540Z,4.43
2022-08-04T20:50:37.016Z,4.53
2022-08-04T20:53:05.663Z,6.00
2022-08-04T20:55:55.243Z,2.83
2022-08-04T20:58:27.572Z,4.27
2022-08-04T21:00:55.303Z,3.60
2022-08-04T21:03:49.701Z,4.37
2022-08-04T21:06:08.743Z,3.77
2022-08-04T21:08:35.153Z,2.33
2022-08-04T21:11:03.082Z,4.33
2022-08-04T21:13:50.700Z,4.17
2022-08-04T21:16:53.573Z,4.63
2022-08-04T21:19:06.711Z,3.80
2022-08-04T21:21:40.536Z,5.53
2022-08-04T21:24:07.783Z,4.67
2022-08-04T21:26:35.046Z,5.23
2022-08-04T21:29:04.121Z,8.40
2022-08-04T21:31:30.676Z,4.30
2022-08-04T21:34:03.337Z,8.10
2022-08-04T21:36:30.478Z,3.90
2022-08-04T21:38:58.094Z,4.00
2022-08-04T21:41:27.080Z,5.27
2022-08-04T21:43:56.231Z,6.17
2022-08-04T21:46:24.295Z,5.90
2022-08-04T21:48:51.172Z,8.00
2022-08-04T21:51:55.802Z,5.60
2022-08-04T21:54:15.269Z,5.47
2022-08-04T21:56:51.004Z,4.20
2022-08-04T21:59:28.588Z,6.40
2022-08-04T22:02:00.318Z,4.27
2022-08-04T22:04:28.300Z,4.63
2022-08-04T22:07:02.777Z,3.70
2022-08-04T22:09:30.631Z,5.93
2022-08-04T22:12:10.437Z,4.80
2022-08-04T22:14:39.440Z,4.13
2022-08-04T22:17:06.008Z,5.73
2022-08-04T22:19:49.992Z,6.57
2022-08-04T22:22:25.314Z,6.27
2022-08-04T22:24:58.541Z,3.97
2022-08-04T22:27:47.383Z,6.73
2022-08-04T22:30:17.224Z,8.17
2022-08-04T22:32:48.143Z,5.43
2022-08-04T22:35:43.045Z,7.90
2022-08-04T22:38:06.346Z,5.97
2022-08-04T22:40:47.616Z,5.93
2022-08-04T22:43:32.826Z,7.50
2022-08-04T22:46:08.345Z,4.40
2022-08-04T22:48:37.671Z,7.33
2022-08-04T22:51:06.414Z,6.70
2022-08-04T22:53:35.389Z,5.83
2022-08-04T22:56:09.445Z,6.37
2022-08-04T22:58:51.170Z,5.87
2022-08-04T23:01:18.543Z,6.67
2022-08-04T23:03:50.855Z,7.27
2022-08-04T23:06:24.393Z,9.10
2022-08-04T23:08:54.100Z,8.90
2022-08-04T23:11:20.720Z,9.63
2022-08-04T23:13:47.325Z,8.33
2022-08-04T23:16:15.564Z,10.13
2022-08-04T23:18:45.288Z,8.07
2022-08-04T23:21:16.101Z,7.37
2022-08-04T23:23:45.563Z,10.57
2022-08-04T23:26:27.565Z,8.00
2022-08-04T23:28:57.066Z,13.03
2022-08-04T23:31:24.485Z,11.53
2022-08-04T23:33:52.266Z,15.37
2022-08-04T23:36:29.458Z,11.40
2022-08-04T23:39:03.925Z,10.43
2022-08-04T23:41:53.479Z,14.50
2022-08-04T23:44:17.536Z,17.17
2022-08-04T23:46:51.062Z,18.63
2022-08-04T23:49:20.017Z,18.03
2022-08-04T23:51:49.811Z,20.03
2022-08-04T23:54:16.281Z,21.97
2022-08-04T23:56:50.062Z,21.20
2022-08-04T23:59:17.878Z,27.57
